createdAt,value
2022-08-16T00:01:02.655Z,18.84
2022-08-16T00:03:32.246Z,18.80
2022-08-16T00:06:04.318Z,18.76
2022-08-16T00:08:36.854Z,18.69
2022-08-16T00:11:04.813Z,18.66
2022-08-16T00:13:32.724Z,18.65
2022-08-16T00:17:06.292Z,18.60
2022-08-16T00:18:54.939Z,18.61
2022-08-16T00:21:21.452Z,18.62
2022-08-16T00:23:49.314Z,18.67
2022-08-16T00:26:35.976Z,18.69
2022-08-16T00:29:02.343Z,18.66
2022-08-16T00:31:58.828Z,18.61
2022-08-16T00:34:18.495Z,18.59
2022-08-16T00:36:48.050Z,18.56
2022-08-16T00:39:15.762Z,18.53
2022-08-16T00:41:43.949Z,18.52
2022-08-16T00:44:13.862Z,18.53
2022-08-16T00:46:52.863Z,18.49
2022-08-16T00:49:29.004Z,18.44
2022-08-16T00:52:06.263Z,18.41
2022-08-16T00:54:52.693Z,18.38
2022-08-16T00:57:20.206Z,18.37
2022-08-16T00:59:59.023Z,18.38
2022-08-16T01:02:31.834Z,18.33
2022-08-16T01:05:09.584Z,18.32
2022-08-16T01:07:50.544Z,18.32
2022-08-16T01:10:19.117Z,18.32
2022-08-16T01:12:45.628Z,18.31
2022-08-16T01:15:13.192Z,18.29
2022-08-16T01:17:42.175Z,18.26
2022-08-16T01:20:24.194Z,18.24
2022-08-16T01:22:57.343Z,18.19
2022-08-16T01:25:33.993Z,18.18
2022-08-16T01:28:02.849Z,18.19
2022-08-16T01:30:33.572Z,18.22
2022-08-16T01:33:14.566Z,18.20
2022-08-16T01:35:45.375Z,18.15
2022-08-16T01:38:19.701Z,18.11
2022-08-16T01:40:46.907Z,18.13
2022-08-16T01:43:13.801Z,18.14
2022-08-16T01:45:41.773Z,18.17
2022-08-16T01:48:19.520Z,18.17
2022-08-16T01:51:09.763Z,18.18
2022-08-16T01:53:33.621Z,18.19
2022-08-16T01:56:00.101Z,18.23
2022-08-16T01:58:26.873Z,18.22
2022-08-16T02:00:54.893Z,18.19
2022-08-16T02:03:24.370Z,18.16
2022-08-16T02:05:52.055Z,18.13
2022-08-16T02:08:32.713Z,18.07
2022-08-16T02:11:00.745Z,18.05
2022-08-16T02:13:27.619Z,17.99
2022-08-16T02:15:54.322Z,17.97
2022-08-16T02:18:21.376Z,17.95
2022-08-16T02:20:49.153Z,17.90
2022-08-16T02:23:17.234Z,17.84
2022-08-16T02:25:52.633Z,17.82
2022-08-16T02:28:21.095Z,17.76
2022-08-16T02:30:51.780Z,17.67
2022-08-16T02:33:18.919Z,17.58
2022-08-16T02:35:54.029Z,17.55
2022-08-16T02:38:25.597Z,17.52
2022-08-16T02:40:54.335Z,17.49
2022-08-16T02:43:21.460Z,17.46
2022-08-16T02:45:53.408Z,17.41
2022-08-16T02:48:28.258Z,17.40
2022-08-16T02:51:06.669Z,17.33
2022-08-16T02:53:39.593Z,17.27
2022-08-16T02:56:09.849Z,17.24
2022-08-16T02:58:36.866Z,17.18
2022-08-16T03:01:03.478Z,17.11
2022-08-16T03:04:39.406Z,17.06
2022-08-16T03:06:41.484Z,17.08
2022-08-16T03:09:10.694Z,17.04
2022-08-16T03:11:40.181Z,17.03
2022-08-16T03:14:07.835Z,17.00
2022-08-16T03:16:38.846Z,17.01
2022-08-16T03:19:09.444Z,16.98
2022-08-16T03:21:37.467Z,16.94
2022-08-16T03:24:05.247Z,16.91
2022-08-16T03:26:32.048Z,16.89
2022-08-16T03:28:58.505Z,16.84
2022-08-16T03:31:25.886Z,16.80
2022-08-16T03:34:01.406Z,16.76
2022-08-16T03:36:31.284Z,16.77
2022-08-16T03:38:59.539Z,16.72
2022-08-16T03:41:29.606Z,16.64
2022-08-16T03:44:13.590Z,16.65
2022-08-16T03:47:01.050Z,16.67
2022-08-16T03:49:35.749Z,16.68
2022-08-16T03:52:04.189Z,16.69
2022-08-16T03:54:30.704Z,16.71
2022-08-16T03:56:58.662Z,16.73
2022-08-16T03:59:25.792Z,16.81
2022-08-16T04:01:56.369Z,16.85
2022-08-16T04:04:25.082Z,16.87
2022-08-16T04:07:00.458Z,16.85
2022-08-16T04:09:29.721Z,16.85
2022-08-16T04:11:56.641Z,16.84
2022-08-16T04:14:30.884Z,16.81
2022-08-16T04:17:01.681Z,16.78
2022-08-16T04:19:31.781Z,16.78
2022-08-16T04:22:00.869Z,16.85
2022-08-16T04:24:28.879Z,16.83
2022-08-16T04:26:55.944Z,16.86
2022-08-16T04:29:24.918Z,16.86
2022-08-16T04:31:56.901Z,16.92
2022-08-16T04:34:28.391Z,16.87
2022-08-16T04:36:56.606Z,16.87
2022-08-16T04:39:24.284Z,16.90
2022-08-16T04:41:56.958Z,16.93
2022-08-16T04:44:32.709Z,16.89
2022-08-16T04:47:21.909Z,16.91
2022-08-16T04:49:52.210Z,16.94
2022-08-16T04:52:33.917Z,16.94
2022-08-16T04:55:03.269Z,16.98
2022-08-16T04:57:30.467Z,16.98
2022-08-16T04:59:57.178Z,17.02
2022-08-16T05:02:42.544Z,17.07
2022-08-16T05:05:17.206Z,17.13
2022-08-16T05:07:57.903Z,17.18
2022-08-16T05:10:25.605Z,17.24
2022-08-16T05:12:52.756Z,17.28
2022-08-16T05:15:19.387Z,17.28
2022-08-16T05:17:46.974Z,17.28
2022-08-16T05:20:39.084Z,17.30
2022-08-16T05:23:00.040Z,17.33
2022-08-16T05:25:40.661Z,17.35
2022-08-16T05:28:10.824Z,17.39
2022-08-16T05:30:38.978Z,17.43
2022-08-16T05:33:06.369Z,17.49
2022-08-16T05:35:35.440Z,17.57
2022-08-16T05:38:04.090Z,17.61
2022-08-16T05:40:59.678Z,17.70
2022-08-16T05:43:26.886Z,17.77
2022-08-16T05:45:54.022Z,17.83
2022-08-16T05:48:21.933Z,17.88
2022-08-16T05:50:53.416Z,17.94
2022-08-16T05:53:19.902Z,17.99
2022-08-16T05:55:51.015Z,18.05
2022-08-16T05:58:31.998Z,18.11
2022-08-16T06:00:59.769Z,18.19
2022-08-16T06:03:26.213Z,18.25
2022-08-16T06:05:56.486Z,18.32
2022-08-16T06:08:31.463Z,18.36
2022-08-16T06:11:05.630Z,18.40
2022-08-16T06:13:37.751Z,18.46
2022-08-16T06:16:08.661Z,18.56
2022-08-16T06:18:45.187Z,18.67
2022-08-16T06:21:14.750Z,18.75
2022-08-16T06:23:51.091Z,18.85
2022-08-16T06:26:21.115Z,18.95
2022-08-16T06:28:47.613Z,19.07
2022-08-16T06:31:16.457Z,19.27
2022-08-16T06:33:44.769Z,19.47
2022-08-16T06:36:14.169Z,19.74
2022-08-16T06:38:56.109Z,19.96
2022-08-16T06:41:27.215Z,20.23
2022-08-16T06:43:54.981Z,20.56
2022-08-16T06:46:36.724Z,20.88
2022-08-16T06:49:10.821Z,21.20
2022-08-16T06:51:46.106Z,21.39
2022-08-16T06:54:15.316Z,21.63
2022-08-16T06:56:42.758Z,21.92
2022-08-16T06:59:10.489Z,22.29
2022-08-16T07:01:46.091Z,22.68
2022-08-16T07:04:31.860Z,23.07
2022-08-16T07:07:00.170Z,23.26
2022-08-16T07:09:29.870Z,23.31
2022-08-16T07:12:05.388Z,23.15
2022-08-16T07:14:32.653Z,22.85
2022-08-16T07:16:59.643Z,23.06
2022-08-16T07:19:33.765Z,23.43
2022-08-16T07:22:38.286Z,23.76
2022-08-16T07:25:01.647Z,24.14
2022-08-16T07:27:28.238Z,24.00
2022-08-16T07:29:55.702Z,23.87
2022-08-16T07:32:29.122Z,24.10
2022-08-16T07:34:56.364Z,24.07
2022-08-16T07:37:23.223Z,23.92
2022-08-16T07:39:50.809Z,23.83
2022-08-16T07:42:25.855Z,24.09
2022-08-16T07:45:01.116Z,24.28
2022-08-16T07:47:31.648Z,24.44
2022-08-16T07:49:58.971Z,24.32
2022-08-16T07:52:29.963Z,24.40
2022-08-16T07:54:57.098Z,24.19
2022-08-16T07:57:24.191Z,24.23
2022-08-16T07:59:50.963Z,24.62
2022-08-16T08:02:20.502Z,25.06
2022-08-16T08:04:47.682Z,24.92
2022-08-16T08:07:14.569Z,24.80
2022-08-16T08:09:43.415Z,25.11
2022-08-16T08:12:31.343Z,25.49
2022-08-16T08:14:57.134Z,25.05
2022-08-16T08:17:23.653Z,25.45
2022-08-16T08:19:53.287Z,25.61
2022-08-16T08:22:22.030Z,25.51
2022-08-16T08:24:48.918Z,25.29
2022-08-16T08:27:23.085Z,25.32
2022-08-16T08:30:49.043Z,25.51
2022-08-16T08:33:02.379Z,25.35
2022-08-16T08:35:24.496Z,25.11
2022-08-16T08:37:55.420Z,25.05
2022-08-16T08:40:24.655Z,24.96
2022-08-16T08:43:00.251Z,25.10
2022-08-16T08:45:47.092Z,25.02
2022-08-16T08:48:34.597Z,24.89
2022-08-16T08:51:00.628Z,24.82
2022-08-16T08:53:30.576Z,24.69
2022-08-16T08:55:58.983Z,24.41
2022-08-16T08:58:34.370Z,24.33
2022-08-16T09:01:01.893Z,24.10
2022-08-16T09:03:29.223Z,23.94
2022-08-16T09:05:59.271Z,24.06
2022-08-16T09:08:27.528Z,24.09
2022-08-16T09:10:56.768Z,24.29
2022-08-16T09:13:28.890Z,24.50
2022-08-16T09:15:59.432Z,24.43
2022-08-16T09:18:35.598Z,24.39
2022-08-16T09:21:03.770Z,24.57
2022-08-16T09:23:36.528Z,24.57
2022-08-16T09:26:43.112Z,24.56
2022-08-16T09:29:15.580Z,24.59
2022-08-16T09:31:41.922Z,24.67
2022-08-16T09:34:09.254Z,24.73
2022-08-16T09:36:37.396Z,24.64
2022-08-16T09:39:15.871Z,24.58
2022-08-16T09:41:43.325Z,24.41
2022-08-16T09:45:09.084Z,24.45
2022-08-16T09:47:11.164Z,24.35
2022-08-16T09:49:40.975Z,24.52
2022-08-16T09:52:09.447Z,24.92
2022-08-16T09:54:36.628Z,25.23
2022-08-16T09:57:03.525Z,25.14
2022-08-16T09:59:31.219Z,25.28
2022-08-16T10:02:25.983Z,25.04
2022-08-16T10:04:53.241Z,25.25
2022-08-16T10:07:21.716Z,25.41
2022-08-16T10:09:54.834Z,25.66
2022-08-16T10:12:55.608Z,25.85
2022-08-16T10:15:22.510Z,25.90
2022-08-16T10:18:00.969Z,25.92
2022-08-16T10:20:29.898Z,25.92
2022-08-16T10:23:03.559Z,25.88
2022-08-16T10:27:00.758Z,25.64
2022-08-16T10:28:28.932Z,25.70
2022-08-16T10:30:59.242Z,25.93
2022-08-16T10:33:27.274Z,26.00
2022-08-16T10:36:03.143Z,25.67
2022-08-16T10:38:30.644Z,25.46
2022-08-16T10:40:59.821Z,25.53
2022-08-16T10:43:27.280Z,25.67
2022-08-16T10:46:00.268Z,25.57
2022-08-16T10:48:28.872Z,25.77
2022-08-16T10:50:58.853Z,25.65
2022-08-16T10:53:32.685Z,25.92
2022-08-16T10:56:51.700Z,26.10
2022-08-16T10:59:32.640Z,25.96
2022-08-16T11:02:56.687Z,25.91
2022-08-16T11:10:21.167Z,26.45
2022-08-16T11:12:52.959Z,26.89
2022-08-16T11:15:20.743Z,26.71
2022-08-16T11:18:21.235Z,26.44
2022-08-16T11:20:40.846Z,26.39
2022-08-16T11:23:08.439Z,26.23
2022-08-16T11:31:10.235Z,26.80
2022-08-16T11:33:55.541Z,26.74
2022-08-16T11:36:24.989Z,26.54
2022-08-16T11:38:58.072Z,26.48
2022-08-16T11:41:25.816Z,26.43
2022-08-16T11:43:55.812Z,26.56
2022-08-16T11:46:43.561Z,26.59
2022-08-16T11:49:13.243Z,26.87
2022-08-16T11:51:43.988Z,27.58
2022-08-16T11:54:20.395Z,27.93
2022-08-16T11:56:52.721Z,27.77
2022-08-16T11:59:25.330Z,27.33
2022-08-16T12:01:59.662Z,27.15
2022-08-16T12:04:26.751Z,27.32
2022-08-16T12:06:54.497Z,27.15
2022-08-16T12:09:21.879Z,27.19
2022-08-16T12:11:52.720Z,27.03
2022-08-16T12:14:20.090Z,27.44
2022-08-16T12:16:55.451Z,27.34
2022-08-16T12:19:23.514Z,27.49
2022-08-16T12:22:00.735Z,27.62
2022-08-16T12:24:32.283Z,27.83
2022-08-16T12:26:59.877Z,28.56
2022-08-16T12:29:29.386Z,29.15
2022-08-16T12:32:01.013Z,28.77
2022-08-16T12:34:50.866Z,29.51
2022-08-16T12:37:19.564Z,29.54
2022-08-16T12:39:50.645Z,29.90
2022-08-16T12:42:20.723Z,29.08
2022-08-16T12:44:47.588Z,29.97
2022-08-16T12:47:32.460Z,30.16
2022-08-16T12:49:58.921Z,30.38
2022-08-16T12:52:33.408Z,30.80
2022-08-16T12:55:01.533Z,31.45
2022-08-16T12:57:36.731Z,32.14
2022-08-16T13:00:05.475Z,31.95
2022-08-16T13:02:33.871Z,32.47
2022-08-16T13:05:03.136Z,32.24
2022-08-16T13:07:31.882Z,32.88
2022-08-16T13:10:21.113Z,32.63
2022-08-16T13:13:00.170Z,32.17
2022-08-16T13:15:28.228Z,31.69
2022-08-16T13:17:54.829Z,32.70
2022-08-16T13:20:22.897Z,32.92
2022-08-16T13:22:51.998Z,33.16
2022-08-16T13:25:22.578Z,33.06
2022-08-16T13:28:02.823Z,32.71
2022-08-16T13:30:37.377Z,32.44
2022-08-16T13:33:11.234Z,33.42
2022-08-16T13:35:43.208Z,32.76
2022-08-16T13:38:10.250Z,33.52
2022-08-16T13:40:49.171Z,33.63
2022-08-16T13:43:17.520Z,33.38
2022-08-16T13:45:44.882Z,32.96
2022-08-16T13:48:11.576Z,33.18
2022-08-16T13:50:52.608Z,33.59
2022-08-16T13:53:19.289Z,34.36
2022-08-16T13:55:57.815Z,33.86
2022-08-16T13:58:37.028Z,33.69
2022-08-16T14:01:12.325Z,32.91
2022-08-16T14:03:39.758Z,33.22
2022-08-16T14:06:07.409Z,33.35
2022-08-16T14:08:42.319Z,33.08
2022-08-16T14:11:12.147Z,33.19
2022-08-16T14:13:39.264Z,32.89
2022-08-16T14:16:12.520Z,32.63
2022-08-16T14:18:51.129Z,33.04
2022-08-16T14:21:19.498Z,32.94
2022-08-16T14:23:48.684Z,32.92
2022-08-16T14:26:15.100Z,32.99
2022-08-16T14:28:41.624Z,33.74
2022-08-16T14:31:09.409Z,33.74
2022-08-16T14:33:36.110Z,34.28
2022-08-16T14:36:02.585Z,34.03
2022-08-16T14:38:29.793Z,33.38
2022-08-16T14:41:06.981Z,33.50
2022-08-16T14:43:37.003Z,33.56
2022-08-16T14:46:07.360Z,33.61
2022-08-16T14:48:34.264Z,33.55
2022-08-16T14:51:01.427Z,33.16
2022-08-16T14:53:28.488Z,33.65
2022-08-16T14:55:55.042Z,33.84
2022-08-16T14:58:34.812Z,34.00
2022-08-16T15:01:05.599Z,33.67
2022-08-16T15:03:33.110Z,33.60
2022-08-16T15:06:03.892Z,32.90
2022-08-16T15:08:34.168Z,33.03
2022-08-16T15:11:03.812Z,32.92
2022-08-16T15:13:30.275Z,32.93
2022-08-16T15:16:02.246Z,32.55
2022-08-16T15:18:31.843Z,32.76
2022-08-16T15:20:59.270Z,32.94
2022-08-16T15:23:25.837Z,32.82
2022-08-16T15:26:02.564Z,32.35
2022-08-16T15:28:31.689Z,32.35
2022-08-16T15:31:00.421Z,32.83
2022-08-16T15:33:29.372Z,33.09
2022-08-16T15:35:58.645Z,32.80
2022-08-16T15:38:55.029Z,32.52
2022-08-16T15:41:28.597Z,32.26
2022-08-16T15:44:05.142Z,31.91
2022-08-16T15:46:55.868Z,31.51
2022-08-16T15:49:25.185Z,31.69
2022-08-16T15:52:01.573Z,31.14
2022-08-16T15:54:32.650Z,31.17
2022-08-16T15:57:12.095Z,31.05
2022-08-16T15:59:48.841Z,31.09
2022-08-16T16:02:19.456Z,30.88
2022-08-16T16:04:54.760Z,30.33
2022-08-16T16:07:21.836Z,30.12
2022-08-16T16:09:48.784Z,30.04
2022-08-16T16:12:41.926Z,30.15
2022-08-16T16:15:03.691Z,30.19
2022-08-16T16:17:30.270Z,30.22
2022-08-16T16:19:56.707Z,30.14
2022-08-16T16:22:25.378Z,30.12
2022-08-16T16:24:52.937Z,29.98
2022-08-16T16:27:21.772Z,29.76
2022-08-16T16:29:57.815Z,29.60
2022-08-16T16:32:30.545Z,29.47
2022-08-16T16:35:01.443Z,29.46
2022-08-16T16:37:27.884Z,29.51
2022-08-16T16:39:54.373Z,29.52
2022-08-16T16:42:21.119Z,29.30
2022-08-16T16:45:00.787Z,29.31
2022-08-16T16:47:27.874Z,29.33
2022-08-16T16:49:55.023Z,29.37
2022-08-16T16:52:43.460Z,29.28
2022-08-16T16:55:09.437Z,29.26
2022-08-16T16:57:54.537Z,29.31
2022-08-16T17:00:30.018Z,29.33
2022-08-16T17:03:05.857Z,29.18
2022-08-16T17:06:00.188Z,29.05
2022-08-16T17:08:29.863Z,29.00
2022-08-16T17:10:57.204Z,28.75
2022-08-16T17:13:24.025Z,28.49
2022-08-16T17:15:52.315Z,28.48
2022-08-16T17:19:14.725Z,28.36
2022-08-16T17:21:07.145Z,28.33
2022-08-16T17:23:58.358Z,28.30
2022-08-16T17:26:20.999Z,28.22
2022-08-16T17:28:58.131Z,28.19
2022-08-16T17:31:38.184Z,28.13
2022-08-16T17:34:29.204Z,28.05
2022-08-16T17:36:54.675Z,28.01
2022-08-16T17:39:21.593Z,27.96
2022-08-16T17:41:50.303Z,27.88
2022-08-16T17:44:19.201Z,27.76
2022-08-16T17:46:52.377Z,27.69
2022-08-16T17:49:19.601Z,27.59
2022-08-16T17:51:46.040Z,27.53
2022-08-16T17:54:18.463Z,27.44
2022-08-16T17:57:01.142Z,27.21
2022-08-16T17:59:28.235Z,27.12
2022-08-16T18:01:55.388Z,27.09
2022-08-16T18:04:48.702Z,27.03
2022-08-16T18:07:08.415Z,26.88
2022-08-16T18:09:36.661Z,26.77
2022-08-16T18:12:44.133Z,26.70
2022-08-16T18:15:06.145Z,26.58
2022-08-16T18:17:32.747Z,26.50
2022-08-16T18:19:59.277Z,26.39
2022-08-16T18:22:30.586Z,26.31
2022-08-16T18:24:57.429Z,26.23
2022-08-16T18:27:26.753Z,26.19
2022-08-16T18:29:53.918Z,26.12
2022-08-16T18:32:21.994Z,25.99
2022-08-16T18:34:51.640Z,25.93
2022-08-16T18:37:18.095Z,25.90
2022-08-16T18:39:44.635Z,25.78
2022-08-16T18:42:12.488Z,25.70
2022-08-16T18:44:40.988Z,25.55
2022-08-16T18:47:07.849Z,25.42
2022-08-16T18:49:34.856Z,25.30
2022-08-16T18:52:01.901Z,25.20
2022-08-16T18:54:29.533Z,25.10
2022-08-16T18:57:07.852Z,24.99
2022-08-16T18:59:34.738Z,24.86
2022-08-16T19:02:04.928Z,24.76
2022-08-16T19:04:47.667Z,24.67
2022-08-16T19:07:19.801Z,24.52
2022-08-16T19:09:46.559Z,24.40
2022-08-16T19:12:15.716Z,24.31
2022-08-16T19:14:42.608Z,24.19
2022-08-16T19:17:11.475Z,24.16
2022-08-16T19:19:38.307Z,24.12
2022-08-16T19:22:06.325Z,23.99
2022-08-16T19:24:33.228Z,23.90
2022-08-16T19:27:01.485Z,23.76
2022-08-16T19:29:28.680Z,23.66
2022-08-16T19:31:55.715Z,23.54
2022-08-16T19:34:22.484Z,23.46
2022-08-16T19:36:49.082Z,23.35
2022-08-16T19:39:17.096Z,23.27
2022-08-16T19:41:45.373Z,23.22
2022-08-16T19:44:12.408Z,23.12
2022-08-16T19:46:43.565Z,23.04
2022-08-16T19:49:10.333Z,22.95
2022-08-16T19:51:42.628Z,22.83
2022-08-16T19:54:09.168Z,22.74
2022-08-16T19:56:35.799Z,22.66
2022-08-16T19:59:18.623Z,22.57
2022-08-16T20:01:46.552Z,22.46
2022-08-16T20:04:13.545Z,22.38
2022-08-16T20:06:40.894Z,22.31
2022-08-16T20:09:07.591Z,22.23
2022-08-16T20:11:35.063Z,22.14
2022-08-16T20:14:02.569Z,22.06
2022-08-16T20:16:29.328Z,21.99
2022-08-16T20:18:56.010Z,21.93
2022-08-16T20:21:22.697Z,21.86
2022-08-16T20:23:49.311Z,21.77
2022-08-16T20:26:16.072Z,21.68
2022-08-16T20:28:53.600Z,21.59
2022-08-16T20:31:24.172Z,21.52
2022-08-16T20:33:51.975Z,21.42
2022-08-16T20:36:18.618Z,21.40
2022-08-16T20:38:47.631Z,21.32
2022-08-16T20:41:18.949Z,21.23
2022-08-16T20:43:47.667Z,21.17
2022-08-16T20:46:14.552Z,21.11
2022-08-16T20:48:41.117Z,21.05
2022-08-16T20:51:10.835Z,20.98
2022-08-16T20:53:44.448Z,20.90
2022-08-16T20:56:11.592Z,20.84
2022-08-16T20:58:38.234Z,20.77
2022-08-16T21:01:05.191Z,20.73
2022-08-16T21:03:32.421Z,20.66
2022-08-16T21:05:59.658Z,20.60
2022-08-16T21:08:51.117Z,20.55
2022-08-16T21:11:13.304Z,20.48
2022-08-16T21:13:42.942Z,20.44
2022-08-16T21:16:12.716Z,20.40
2022-08-16T21:18:39.257Z,20.34
2022-08-16T21:21:05.775Z,20.30
2022-08-16T21:23:32.671Z,20.22
2022-08-16T21:25:59.935Z,20.12
2022-08-16T21:28:41.786Z,20.10
2022-08-16T21:31:14.078Z,20.06
2022-08-16T21:33:41.213Z,20.02
2022-08-16T21:36:07.939Z,19.98
2022-08-16T21:38:34.708Z,19.93
2022-08-16T21:41:02.701Z,19.88
2022-08-16T21:43:32.756Z,19.83
2022-08-16T21:46:00.050Z,19.79
2022-08-16T21:48:34.441Z,19.75
2022-08-16T21:51:06.873Z,19.69
2022-08-16T21:53:33.588Z,19.64
2022-08-16T21:56:01.680Z,19.61
2022-08-16T21:58:28.866Z,19.56
2022-08-16T22:00:55.459Z,19.51
2022-08-16T22:03:23.563Z,19.45
2022-08-16T22:06:12.008Z,19.42
2022-08-16T22:08:39.536Z,19.35
2022-08-16T22:11:16.764Z,19.30
2022-08-16T22:13:43.466Z,19.28
2022-08-16T22:16:18.277Z,19.25
2022-08-16T22:18:52.528Z,19.18
2022-08-16T22:21:20.087Z,19.14
2022-08-16T22:23:56.852Z,19.10
2022-08-16T22:26:30.101Z,19.06
2022-08-16T22:28:58.219Z,19.01
2022-08-16T22:31:25.410Z,18.98
2022-08-16T22:33:52.084Z,18.94
2022-08-16T22:36:19.132Z,18.89
2022-08-16T22:38:56.602Z,18.84
2022-08-16T22:41:24.518Z,18.82
2022-08-16T22:43:51.130Z,18.78
2022-08-16T22:46:19.770Z,18.71
2022-08-16T22:48:46.553Z,18.68
2022-08-16T22:51:13.232Z,18.67
2022-08-16T22:53:39.931Z,18.62
2022-08-16T22:56:06.787Z,18.58
2022-08-16T22:58:36.530Z,18.53
2022-08-16T23:01:06.321Z,18.49
2022-08-16T23:03:33.262Z,18.46
2022-08-16T23:06:03.577Z,18.42
2022-08-16T23:08:38.818Z,18.38
2022-08-16T23:11:09.255Z,18.35
2022-08-16T23:13:36.155Z,18.30
2022-08-16T23:16:11.355Z,18.24
2022-08-16T23:18:39.032Z,18.20
2022-08-16T23:21:07.517Z,18.17
2022-08-16T23:23:34.267Z,18.12
2022-08-16T23:26:01.478Z,18.06
2022-08-16T23:28:30.059Z,18.02
2022-08-16T23:30:57.847Z,17.99
2022-08-16T23:33:25.952Z,17.95
2022-08-16T23:35:53.801Z,17.91
2022-08-16T23:38:37.681Z,17.88
2022-08-16T23:41:09.297Z,17.84
2022-08-16T23:43:44.315Z,17.81
2022-08-16T23:46:13.997Z,17.79
2022-08-16T23:49:59.066Z,17.76
2022-08-16T23:51:29.141Z,17.71
2022-08-16T23:53:55.923Z,17.69
2022-08-16T23:56:22.677Z,17.65
2022-08-16T23:58:54.382Z,17.62
